Time;durP1;ratioP1;P1;durP2;ratioP2;P2;SDS_P1;SDS_P2;PMS_P1;PMS_P2;Temp;Humidity;BMP_temperature;BMP_pressure;BME280_temperature;BME280_humidity;BME280_pressure;Samples;Min_cycle;Max_cycle;Signal;HPM_P1;HPM_P2
2022/08/05 00:00:15;;;;;;;;;;;;;;;21.74;57.26;99533.19;4953639;28;19926;-73
2022/08/05 00:02:45;;;;;;;;;;;;;;;21.76;56.93;99544.34;4994194;28;19925;-74
2022/08/05 00:05:19;;;;;;;;;;;;;;;21.70;57.21;99553.25;4994307;28;19961;-73
2022/08/05 00:08:09;;;;;;;;;;;;;;;21.61;57.83;99538.13;4994266;28;20390;-74
2022/08/05 00:10:57;;;;;;;;;;;;;;;21.44;58.69;99539.81;4994153;28;19925;-73
2022/08/05 00:13:29;;;;;;;;;;;;;;;21.41;58.43;99534.75;4994441;28;20300;-74
2022/08/05 00:16:07;;;;;;;;;;;;;;;21.46;58.51;99530.19;4994170;28;19965;-73
2022/08/05 00:18:37;;;;;;;;;;;;;;;21.50;58.51;99536.94;4994245;28;19926;-73
2022/08/05 00:21:06;;;;;;;;;;;;;;;21.46;58.27;99533.63;4996272;28;19926;-74
2022/08/05 00:23:35;;;;;;;;;;;;;;;21.47;58.33;99534.50;4997990;28;19930;-73
2022/08/05 00:26:15;;;;;;;;;;;;;;;21.47;58.29;99539.69;4997683;28;19926;-74
2022/08/05 00:28:43;;;;;;;;;;;;;;;21.50;57.99;99539.53;4998185;28;20348;-73
2022/08/05 00:31:13;;;;;;;;;;;;;;;21.56;57.86;99528.84;4997519;28;19969;-73
2022/08/05 00:33:43;;;;;;;;;;;;;;;21.55;57.77;99541.00;4997485;28;20450;-74
2022/08/05 00:36:31;;;;;;;;;;;;;;;21.56;57.47;99531.44;4997562;28;19925;-73
2022/08/05 00:39:20;;;;;;;;;;;;;;;21.54;57.26;99536.72;4997153;28;19931;-74
2022/08/05 00:41:51;;;;;;;;;;;;;;;21.49;57.12;99540.44;4997766;28;20012;-73
2022/08/05 00:44:23;;;;;;;;;;;;;;;21.47;57.07;99534.50;4997688;28;19969;-73
2022/08/05 00:46:59;;;;;;;;;;;;;;;21.47;57.30;99524.94;4997360;28;19929;-73
2022/08/05 00:49:33;;;;;;;;;;;;;;;21.45;57.23;99525.94;4997292;28;19925;-73
2022/08/05 00:52:19;;;;;;;;;;;;;;;21.43;57.22;99522.56;4997196;28;20029;-73
2022/08/05 00:54:56;;;;;;;;;;;;;;;21.34;57.37;99521.22;4997162;28;20379;-74
2022/08/05 00:57:25;;;;;;;;;;;;;;;21.28;57.39;99519.75;4997475;28;19988;-73
2022/08/05 01:00:14;;;;;;;;;;;;;;;21.26;57.36;99520.75;4997735;28;19926;-73
2022/08/05 01:02:44;;;;;;;;;;;;;;;21.25;57.46;99525.13;4997076;28;19925;-73
2022/08/05 01:05:14;;;;;;;;;;;;;;;21.25;57.41;99525.13;4997384;28;20335;-74
2022/08/05 01:07:42;;;;;;;;;;;;;;;21.17;58.17;99522.03;4979618;28;19941;-74
2022/08/05 01:10:35;;;;;;;;;;;;;;;21.15;57.95;99523.00;4997641;28;19926;-73
2022/08/05 01:13:09;;;;;;;;;;;;;;;21.06;58.10;99519.09;4979464;28;19926;-73
2022/08/05 01:15:43;;;;;;;;;;;;;;;21.03;58.22;99514.00;4997140;28;19933;-74
2022/08/05 01:18:16;;;;;;;;;;;;;;;21.09;57.99;99516.34;4996788;28;19926;-74
2022/08/05 01:20:52;;;;;;;;;;;;;;;21.04;58.30;99518.25;4996694;28;20433;-73
2022/08/05 01:23:29;;;;;;;;;;;;;;;21.02;58.55;99512.31;4996717;28;20012;-73
2022/08/05 01:26:17;;;;;;;;;;;;;;;21.00;58.97;99508.94;4996607;28;19933;-74
2022/08/05 01:28:50;;;;;;;;;;;;;;;20.92;59.05;99507.63;4994502;28;20037;-73
2022/08/05 01:31:24;;;;;;;;;;;;;;;20.87;59.11;99518.22;4996315;28;19926;-73
2022/08/05 01:33:57;;;;;;;;;;;;;;;20.88;59.25;99514.69;4979372;28;19926;-73
2022/08/05 01:36:28;;;;;;;;;;;;;;;20.86;59.35;99508.72;4996423;28;19930;-74
2022/08/05 01:38:57;;;;;;;;;;;;;;;20.88;59.34;99524.22;4996121;28;19961;-73
2022/08/05 01:41:32;;;;;;;;;;;;;;;20.91;59.67;99511.97;4996642;28;19926;-74
2022/08/05 01:44:05;;;;;;;;;;;;;;;20.84;59.74;99515.75;4996597;28;19926;-74
2022/08/05 01:46:38;;;;;;;;;;;;;;;20.73;60.50;99518.81;4996569;28;19932;-73
2022/08/05 01:49:16;;;;;;;;;;;;;;;20.71;60.41;99514.59;4996222;28;19926;-73
2022/08/05 01:51:53;;;;;;;;;;;;;;;20.74;60.25;99517.06;4978820;28;20383;-73
2022/08/05 01:54:25;;;;;;;;;;;;;;;20.74;59.91;99511.88;4996154;28;19925;-74
2022/08/05 01:56:56;;;;;;;;;;;;;;;20.75;59.97;99508.38;4995921;28;19937;-74
2022/08/05 01:59:47;;;;;;;;;;;;;;;20.77;60.37;99503.13;4987855;28;20343;-73
2022/08/05 02:02:16;;;;;;;;;;;;;;;20.73;60.36;99510.22;4977155;28;19930;-74
2022/08/05 02:04:45;;;;;;;;;;;;;;;20.73;60.40;99504.16;4976464;28;19932;-74
2022/08/05 02:07:17;;;;;;;;;;;;;;;20.68;60.05;99502.59;4976652;28;20296;-74
2022/08/05 02:09:50;;;;;;;;;;;;;;;20.67;60.34;99502.69;4976385;28;19926;-74
2022/08/05 02:12:20;;;;;;;;;;;;;;;20.71;60.63;99506.81;4976221;28;19930;-74
2022/08/05 02:15:00;;;;;;;;;;;;;;;20.66;61.09;99504.44;4976330;28;19935;-74
2022/08/05 02:17:36;;;;;;;;;;;;;;;20.53;61.67;99502.44;4976385;28;20013;-74
2022/08/05 02:20:26;;;;;;;;;;;;;;;20.45;61.66;99504.53;4976213;28;19936;-74
2022/08/05 02:22:57;;;;;;;;;;;;;;;20.40;61.54;99502.13;4976427;28;19930;-73
2022/08/05 02:25:29;;;;;;;;;;;;;;;20.40;61.26;99496.09;4976404;28;19948;-73
2022/08/05 02:28:02;;;;;;;;;;;;;;;20.46;60.69;99501.03;4976018;28;19927;-74
2022/08/05 02:30:41;;;;;;;;;;;;;;;20.41;60.93;99500.41;4976004;28;19981;-74
2022/08/05 02:33:22;;;;;;;;;;;;;;;20.38;60.92;99500.53;4975873;28;19984;-74
2022/08/05 02:36:09;;;;;;;;;;;;;;;20.43;60.65;99501.16;4976196;28;20281;-74
2022/08/05 02:38:42;;;;;;;;;;;;;;;20.43;60.68;99506.34;4975590;28;19933;-74
2022/08/05 02:41:20;;;;;;;;;;;;;;;20.43;60.24;99496.84;4976095;28;19926;-73
2022/08/05 02:43:52;;;;;;;;;;;;;;;20.40;60.31;99498.69;4975340;28;19969;-74
2022/08/05 02:46:36;;;;;;;;;;;;;;;20.38;60.27;99492.75;4975760;28;19933;-74
2022/08/05 02:49:25;;;;;;;;;;;;;;;20.37;60.32;99501.44;4975693;28;19926;-74
2022/08/05 02:52:06;;;;;;;;;;;;;;;20.34;60.65;99488.59;4975693;28;20388;-74
2022/08/05 02:54:36;;;;;;;;;;;;;;;20.29;60.64;99503.53;4975624;28;19930;-73
2022/08/05 02:57:11;;;;;;;;;;;;;;;20.26;60.71;99493.28;4976189;28;20404;-74
2022/08/05 03:00:00;;;;;;;;;;;;;;;20.28;60.75;99499.22;4975866;28;19996;-74
2022/08/05 03:02:32;;;;;;;;;;;;;;;20.21;61.07;99488.25;4958486;28;20012;-74
2022/08/05 03:05:02;;;;;;;;;;;;;;;20.21;61.00;99487.41;4975449;28;19930;-74
2022/08/05 03:07:31;;;;;;;;;;;;;;;20.24;60.89;99489.91;4975398;28;19933;-74
2022/08/05 03:10:19;;;;;;;;;;;;;;;20.22;60.70;99492.59;4975722;28;19926;-74
2022/08/05 03:12:52;;;;;;;;;;;;;;;20.17;61.09;99498.81;4975289;28;19926;-73
2022/08/05 03:15:21;;;;;;;;;;;;;;;20.13;61.27;99489.50;4975222;28;19927;-74
2022/08/05 03:17:54;;;;;;;;;;;;;;;20.10;62.02;99500.00;4975572;28;19933;-74
2022/08/05 03:20:26;;;;;;;;;;;;;;;20.00;62.13;99496.94;4975254;28;19981;-73
2022/08/05 03:22:56;;;;;;;;;;;;;;;20.02;61.94;99495.13;4975177;28;19926;-74
2022/08/05 03:25:25;;;;;;;;;;;;;;;20.06;61.54;99502.72;4975467;28;20270;-74
2022/08/05 03:28:15;;;;;;;;;;;;;;;20.05;61.58;99489.81;4975263;28;19930;-74
2022/08/05 03:30:48;;;;;;;;;;;;;;;20.05;61.89;99495.00;4975163;28;19926;-74
2022/08/05 03:33:20;;;;;;;;;;;;;;;20.06;61.64;99494.09;4975028;28;19926;-74
2022/08/05 03:35:51;;;;;;;;;;;;;;;20.10;61.50;99487.03;4975120;28;19952;-74
2022/08/05 03:38:21;;;;;;;;;;;;;;;20.08;61.82;99496.63;4975094;28;19969;-74
2022/08/05 03:41:04;;;;;;;;;;;;;;;20.03;61.88;99500.25;4975282;28;19926;-73
2022/08/05 03:43:38;;;;;;;;;;;;;;;20.06;61.55;99494.94;4975034;28;19933;-73
2022/08/05 03:46:26;;;;;;;;;;;;;;;20.10;61.32;99500.00;4975032;28;19965;-74
2022/08/05 03:49:01;;;;;;;;;;;;;;;20.11;61.53;99496.50;4957992;28;20368;-74
2022/08/05 03:51:32;;;;;;;;;;;;;;;20.14;61.48;99488.59;4957853;28;19933;-74
2022/08/05 03:54:23;;;;;;;;;;;;;;;20.15;61.95;99490.28;4974895;28;19926;-74
2022/08/05 03:57:13;;;;;;;;;;;;;;;20.15;61.63;99495.47;4978980;28;19961;-74
2022/08/05 03:59:47;;;;;;;;;;;;;;;20.15;61.54;99485.09;4979485;28;19926;-73
2022/08/05 04:02:24;;;;;;;;;;;;;;;20.20;62.04;99488.34;4979139;28;20025;-74
2022/08/05 04:05:15;;;;;;;;;;;;;;;20.18;61.77;99496.16;4978770;28;19926;-74
2022/08/05 04:07:44;;;;;;;;;;;;;;;20.21;61.84;99490.00;4978945;28;19964;-74
2022/08/05 04:10:27;;;;;;;;;;;;;;;20.25;62.22;99489.84;4978925;28;19926;-74
2022/08/05 04:13:05;;;;;;;;;;;;;;;20.30;61.97;99489.66;4978432;28;19997;-74
2022/08/05 04:15:34;;;;;;;;;;;;;;;20.32;62.10;99493.88;4978459;28;19989;-73
2022/08/05 04:18:04;;;;;;;;;;;;;;;20.35;61.85;99493.72;4978725;28;19926;-74
2022/08/05 04:20:36;;;;;;;;;;;;;;;20.40;61.65;99496.97;4978684;28;19948;-74
2022/08/05 04:23:09;;;;;;;;;;;;;;;20.46;62.02;99490.66;4978748;28;19930;-74
2022/08/05 04:25:43;;;;;;;;;;;;;;;20.51;62.34;99493.91;4978292;28;19932;-74
2022/08/05 04:28:28;;;;;;;;;;;;;;;20.54;62.30;99494.59;4978553;28;19930;-74
2022/08/05 04:30:59;;;;;;;;;;;;;;;20.62;62.53;99491.66;4978456;28;19926;-73
2022/08/05 04:33:29;;;;;;;;;;;;;;;20.68;62.20;99497.41;4978059;28;19933;-74
2022/08/05 04:36:19;;;;;;;;;;;;;;;20.76;62.48;99489.28;4978391;28;19934;-74
2022/08/05 04:39:08;;;;;;;;;;;;;;;20.80;62.84;99490.00;4977857;28;20017;-74
2022/08/05 04:41:38;;;;;;;;;;;;;;;20.85;62.30;99483.69;4977936;28;20017;-73
2022/08/05 04:44:08;;;;;;;;;;;;;;;20.97;61.92;99477.13;4978256;28;19952;-74
2022/08/05 04:46:37;;;;;;;;;;;;;;;21.09;61.86;99485.19;4977895;28;19981;-74
2022/08/05 04:49:06;;;;;;;;;;;;;;;21.20;62.09;99475.16;4978160;28;19973;-74
2022/08/05 04:51:44;;;;;;;;;;;;;;;21.35;62.06;99476.19;4978096;28;19926;-74
2022/08/05 04:54:13;;;;;;;;;;;;;;;21.46;61.90;99475.66;4960419;28;19926;-74
2022/08/05 04:56:42;;;;;;;;;;;;;;;21.61;61.99;99469.72;4977664;28;19959;-74
2022/08/05 04:59:11;;;;;;;;;;;;;;;21.67;61.70;99465.06;4977979;28;19926;-74
2022/08/05 05:01:52;;;;;;;;;;;;;;;21.74;61.54;99476.00;4977906;28;20392;-74
2022/08/05 05:04:40;;;;;;;;;;;;;;;21.82;61.24;99479.91;4977614;28;19926;-74
2022/08/05 05:07:16;;;;;;;;;;;;;;;21.94;60.14;99468.06;4977288;28;20288;-73
2022/08/05 05:09:45;;;;;;;;;;;;;;;22.07;59.49;99469.16;4977515;28;19926;-73
2022/08/05 05:12:13;;;;;;;;;;;;;;;22.19;58.94;99476.34;4977397;28;19926;-73
2022/08/05 05:14:42;;;;;;;;;;;;;;;22.33;58.54;99471.25;4977303;28;19926;-73
2022/08/05 05:17:19;;;;;;;;;;;;;;;22.48;58.15;99470.44;4977370;28;19930;-73
2022/08/05 05:19:53;;;;;;;;;;;;;;;22.62;57.24;99473.22;4977946;28;19926;-74
2022/08/05 05:22:25;;;;;;;;;;;;;;;22.65;56.35;99472.22;4977241;28;19926;-73
2022/08/05 05:24:54;;;;;;;;;;;;;;;22.73;56.34;99470.00;4977885;28;19972;-73
2022/08/05 05:27:26;;;;;;;;;;;;;;;22.86;56.01;99470.19;4977515;28;19926;-74
2022/08/05 05:30:15;;;;;;;;;;;;;;;22.96;55.82;99471.38;4960278;28;20067;-73
2022/08/05 05:33:02;;;;;;;;;;;;;;;23.06;55.78;99462.97;4977333;28;20016;-73
2022/08/05 05:35:45;;;;;;;;;;;;;;;23.20;55.36;99464.84;4977718;28;19926;-73
2022/08/05 05:38:17;;;;;;;;;;;;;;;23.30;55.18;99466.81;4976731;28;19977;-73
2022/08/05 05:40:55;;;;;;;;;;;;;;;23.41;54.74;99481.91;4959342;28;20292;-73
2022/08/05 05:43:33;;;;;;;;;;;;;;;23.51;54.66;99470.03;4978017;28;19926;-73
